Flight Training


We provide structured training required to obtain a pilots certificate ranging from a Private Pilot up to ATP flying for the major airlines.

If your desire to fly is for personal pleasure the first step is to find a professional FAA licensed flight instructor to begin your journey.

The one-hour introductory flight with an instructor lasts one hour and features a log book and a six-month subscription to Flight Training magazine. After flying you to the training area, your instructor will let you test the controls. Call us now

 

Aviation Weather

Available data for KLDJ from the past 2 hours
LINDEN, NJ
Metar
KLDJ 230955Z AUTO 15010KT 10SM SCT065 OVC090 24/21 A2992 RMK AO2 LTG DSNT SW T02370205

09:55 UTC

Wind: 150° 10kt

Visibility: 10 SM

Sky: SCT 6500 ft

Temp: 24 deg C / 75.2 deg F

Dewpoint: 21 deg C / 69.8 deg F

Pressure: 29.92 inHg


Available data for KEWR from the past hour
NEWARK, NJ
TAF
KEWR 230841Z 2309/2412 14013KT P6SM BKN035 FM231200 14013G21KT P6SM FEW015 OVC035 FM232100 14012G22KT 6SM -SHRA FEW010 OVC025 FM240000 18009KT 3SM SHRA BR BKN009 OVC012 PROB30 2400/2406 2SM +TSRA BR BKN009CB FM240700 32007KT 6SM -SHRA BR OVC020

Our planes

Some of our students